James Ospina

Olheiro-Chefe - Real Cartagena
6 Mai 2027
Quinta-feira
Processo

Personalidade

Adaptabilidade (14) Ambição (8) Controvérsia (4) Lealdade (3) Pressão (2) Profissionalismo (4) Espírito Esportivo (6) Temperamento (18)

Perfil

Estilo de Treinamento Democrático
Licença Nacional B
Determinação 7
Gestão de Pessoas 6
Motivação 7
Disciplina 9
Satisfação no Trabalho
72%
Fadiga
0%
Função Olheiro-Chefe
Salário 53.0K p/s
Contrato 14.03.2030

Desempenho

Comportamento Bom
Eficácia do Treinamento
26%
Desenvolvimento do Jogador
15%
Prevenção de Lesões
35%
Implementação Tática
30%

Eventos Recentes

Participou de uma reunião de recrutamento agora
Participou de uma reunião de recrutamento 7d atrás
Participou de uma reunião de recrutamento 7d atrás
Participou de uma reunião de recrutamento 7d atrás
Participou de uma reunião de recrutamento 14d atrás
Participou de uma reunião de recrutamento 14d atrás
Participou de uma reunião de recrutamento 14d atrás
Participou de uma reunião de recrutamento 21d atrás

Monitorando agora

170
Jogador Clube Status Habilidade Confiança Observado Última observação Último voto
Nicolás Contín MFK Ruzomberok Ativo 104 / 120 40% 3 29.12.2026 -
Vyacheslav Grulev Nizhniy Novgorod Ativo 108 / 107 40% 1 29.12.2026 -
Lazar Marković Apollon Rejeitado 130 / 137 40% 2 15.12.2026 -
Antoine Griezmann Orlando City Ativo 163 / 159 40% 1 15.12.2026 -
Antony Alonso Deportivo Riestra Ativo 117 / 118 40% 1 30.11.2026 -
Andrés Dieppa Metalurh Zaporizhzhia Ativo 88 / 81 40% 1 30.11.2026 -
Andre Asamoah WAFA Ativo 116 / 106 40% 1 30.11.2026 -
Antonio Đaković HNK Vukovar 1991 Ativo 115 / 96 40% 2 29.11.2026 -
Brent Gabriel Zulte Waregem Ativo 120 / 137 40% 1 29.11.2026 -
Nathan Bishop AFC Wimbledon Ativo 91 / 91 40% 1 29.11.2026 -
Joaquín Silva Plaza Colonia Ativo 103 / 104 40% 4 28.11.2026 -
Davor Matijaš HNK Gorica Ativo 112 / 122 40% 1 28.11.2026 -
Joaquín Bigo Tristán Suárez Ativo 103 / 100 40% 1 28.11.2026 -
Josh Windass Wrexham Ativo 129 / 144 40% 1 28.11.2026 -
Nicolás Castagno Imotski Ativo 104 / 78 40% 1 28.11.2026 -
Hany Mukhtar Spezia Rejeitado 143 / 153 40% 1 28.11.2026 Mais informações
Bautista Arricau NK Varazdin Ativo 94 / 105 40% 2 27.11.2026 -
Cristian Bordacahar Ativo 109 / 123 40% 1 27.11.2026 -
Heung-Min Son Los Angeles Football Club Ativo 137 / 156 40% 1 26.11.2026 -
Roy Castillo OB Ativo 94 / 114 40% 1 26.11.2026 -
Lukas Gütlbauer Wolfsberger AC Ativo 120 / 124 40% 3 23.11.2026 -
Francisco Salerno Defensores Unidos Ativo 107 / 99 40% 2 23.11.2026 -
Matías Montero Madryn Ativo 102 / 103 40% 2 22.11.2026 -
Murphy Cooper Plymouth Argyle Ativo 120 / 99 40% 2 22.11.2026 -
Will Dennis Milton Keynes Dons Ativo 97 / 105 40% 1 22.11.2026 -
Felipe Parra Envigado Ativo 123 / 125 40% 4 21.11.2026 -
Diego Romero Universitario Ativo 117 / 115 40% 3 20.11.2026 -
Marcus Bundgaard SonderjyskE Ativo 113 / 113 40% 1 20.11.2026 -
Wyll Stanway Barrow AFC Ativo 84 / 108 40% 1 19.11.2026 -
Mauro Casoli Talleres Ativo 105 / 111 40% 1 19.11.2026 -
Heorhii Yermakov Metalist Ativo 106 / 126 40% 1 19.11.2026 -
Enzo Vázquez Central Norte Ativo 113 / 116 40% 4 18.11.2026 -
Jan Bačkovský Dukla Prague Ativo 109 / 98 40% 1 18.11.2026 -
Emiliano González Almagro Ativo 112 / 114 40% 4 15.11.2026 -
Corey Addai Stockport County Ativo 112 / 107 40% 2 15.11.2026 -
Andras Nikolic Haladas Ativo 107 / 112 40% 1 15.11.2026 -
Nahuel Galardi Maipú Ativo 113 / 109 40% 2 14.11.2026 -
Strahinja Manojlović Radnicki Nis Ativo 112 / 116 40% 1 14.11.2026 -
Federico Bonansea San Martín SJ Ativo 106 / 110 40% 4 13.11.2026 -
Dominik Takáč Slovan Bratislava Ativo 140 / 140 40% 2 13.11.2026 -
David Volk Dinamo Makhachkala Ativo 109 / 92 40% 1 12.11.2026 -
Pol Tristán Barnsley Ativo 103 / 114 40% 1 12.11.2026 -
Facundo Vila Estudiantes Ativo 106 / 106 40% 2 11.11.2026 -
Fabricio Hass Central Norte Ativo 109 / 102 40% 2 11.11.2026 -
Josh Keeley Luton Town Ativo 125 / 136 40% 1 11.11.2026 -
Tim Rönning Halmstad Ativo 107 / 105 40% 1 10.11.2026 -
Andrés Gudiño Cruz Azul Ativo 119 / 109 40% 2 09.11.2026 -
Fabrizio Correa Juventud Ativo 115 / 129 40% 1 09.11.2026 -
Gianluca Pugliese Güemes Ativo 116 / 121 40% 2 08.11.2026 -
Beau Reus Waasland-Beveren Ativo 116 / 137 40% 1 08.11.2026 -
Nicolás Cordero Aldosivi Ativo 120 / 125 40% 1 08.11.2026 -
Christian Ebere Cruz Azul Ativo 128 / 127 40% 1 08.11.2026 -
Ángel Sepúlveda Guadalajara Ativo 132 / 142 40% 2 07.11.2026 -
Matej Poplatnik NK Celje Ativo 127 / 128 40% 1 07.11.2026 Mais informações
Enzo Avaro Odd Ativo 107 / 117 40% 1 07.11.2026 -
Rubén Del Campo Morelia Ativo 90 / 112 40% 2 06.11.2026 -
Tomás González Piast Ativo 127 / 105 40% 1 06.11.2026 Mais informações
Maximiliano Rodríguez Huachipato Ativo 108 / 116 40% 3 05.11.2026 -
Adrián Balboa Sarmiento Ativo 119 / 123 40% 2 05.11.2026 -
Fabricio Rojas Gimnasia y Tiro Ativo 119 / 100 40% 1 05.11.2026 -
Tomás Ahumada Audax Italiano Ativo 102 / 119 40% 2 02.11.2026 -
Killian Cahill Leyton Orient Ativo 109 / 94 40% 2 02.11.2026 -
Bruno Antúnez Boston River Ativo 109 / 112 40% 3 02.11.2026 -
Lucas Bruera Carabobo Ativo 125 / 129 40% 4 01.11.2026 -
Ángel González Libertad Ativo 106 / 111 40% 3 31.10.2026 -
Sebastián Meza Huracán Ativo 132 / 123 40% 6 31.10.2026 -
João Virgínia Wolverhampton Ativo 111 / 132 40% 1 31.10.2026 -
Ekain Orobengoa Real Sociedad Ativo 106 / 101 40% 1 31.10.2026 -
Renato Solís Sporting Cristal Ativo 127 / 129 40% 5 29.10.2026 -
Matías Dufour Sportivo Trinidense Ativo 102 / 96 40% 2 29.10.2026 -
Fernando Tapia Club America Ativo 117 / 126 40% 1 29.10.2026 -
Lucas Verza Olimpia Ativo 109 / 123 40% 3 28.10.2026 -
Zacarías López Iquique Ativo 104 / 96 40% 1 28.10.2026 -
Đorđe Nikolić Cukaricki Ativo 102 / 120 40% 1 27.10.2026 -
Pontus Dahlberg Lillestrom Ativo 113 / 117 40% 1 26.10.2026 -
Nahuel Pezzini Arsenal Ativo 106 / 118 40% 1 25.10.2026 -
Thomas De Bruyne Mouscron Ativo 132 / 107 40% 1 23.10.2026 -
Lautaro Maldonado Instituto Ativo 115 / 104 40% 2 22.10.2026 -
Joel Orlando Almagro Ativo 109 / 121 40% 1 22.10.2026 -
Manuel Ospina Cortulua Ativo 133 / 116 40% 1 22.10.2026 -
Andrés Rentería Jaguares Ativo 119 / 130 40% 1 20.10.2026 -
Alejo Cruz Juventud Ativo 119 / 127 40% 1 20.10.2026 -
Nathan Trott Cardiff City Ativo 118 / 129 40% 1 18.10.2026 -
Angel Zamudio Sport Huancayo Ativo 113 / 105 40% 1 18.10.2026 -
Juan Moreno Pachuca Ativo 119 / 121 40% 3 17.10.2026 -
Aldo Pérez Guarani Ativo 111 / 106 40% 2 17.10.2026 -
Víctor Cabezas Union Magdalena Ativo 113 / 108 40% 3 15.10.2026 -
Manuel Tasso New York City Ativo 87 / 81 40% 1 14.10.2026 -
Matías Tagliamonte Racing Club Ativo 114 / 130 40% 3 13.10.2026 -
Agustín Olavarría Colon Ativo 99 / 100 40% 1 12.10.2026 -
Kevin Morgan Plaza Colonia Ativo 99 / 94 40% 1 12.10.2026 -
Nicolás Heiz Maipú Ativo 109 / 98 40% 1 12.10.2026 -
Ezequiel Aguirre Defensores Ativo 113 / 114 40% 1 12.10.2026 -
Sergio González Racing Ativo 118 / 104 40% 1 12.10.2026 -
Franco Petroli Lanús Ativo 130 / 134 40% 1 10.10.2026 -
Rodrigo Mosqueira Agropecuario Argentino Ativo 107 / 99 40% 1 10.10.2026 -
Juan Cruz Martins Jihlava Ativo 97 / 86 40% 1 10.10.2026 -
Ignacio Valsangiácomo Racing Ativo 96 / 89 40% 1 08.10.2026 -
Facundo Pons San Martín Ativo 111 / 114 40% 1 08.10.2026 -
Brayan Gil Baltika Ativo 133 / 132 40% 1 07.10.2026 -
Gonzalo Zelarayán Belgrano Ativo 122 / 115 40% 1 07.10.2026 -
Marcelo Torres Gimnasia La Plata Ativo 113 / 113 40% 1 07.10.2026 -
Diego Porcel Argentinos Juniors Ativo 119 / 132 40% 1 06.10.2026 -
Tomás Fernández Aldosivi Ativo 125 / 111 40% 1 06.10.2026 -
Chofis Besiktas Ativo 132 / 143 40% 1 06.10.2026 -
Brian Montenegro Defensor Sporting Ativo 112 / 122 40% 2 05.10.2026 -
Alan Pulido Guadalajara Ativo 116 / 124 40% 1 05.10.2026 -
Lautaro Bursich Talleres Ativo 89 / 109 40% 1 03.10.2026 -
Tomás Durso Atlético Tucumán Ativo 128 / 111 40% 2 02.10.2026 -
Laureano Martínez Talleres Ativo 97 / 104 40% 1 30.09.2026 -
Federico Varese Racing Ativo 110 / 121 40% 1 28.09.2026 -
Marcelo Miño Ferro Carril Oeste Ativo 108 / 118 40% 1 28.09.2026 -
Beycker Velásquez Zamora Ativo 95 / 104 40% 2 27.09.2026 -
Santiago Roggero Gimnasia y Esgrima Ativo 108 / 110 40% 1 26.09.2026 -
Gonzalo Falcón Cienciano Ativo 110 / 117 40% 3 25.09.2026 -
Mateo Clemente San Lorenzo Ativo 108 / 114 40% 1 25.09.2026 -
Juan Pablo Noce All Boys Ativo 102 / 113 40% 1 24.09.2026 -
Francisco Casanova Cerrito Ativo 103 / 109 40% 1 24.09.2026 -
Ramiro Ruiz Rodríguez Atlético Tucumán Ativo 120 / 129 40% 1 24.09.2026 -
Agustín Buffa Wanderers Ativo 105 / 108 40% 1 21.09.2026 -
Frankarlos Benítez Caracas Ativo 89 / 94 40% 1 20.09.2026 -
Uriel Montes Veracruz Ativo 111 / 89 40% 1 20.09.2026 -
Alexander Díaz Deportivo Riestra Ativo 115 / 105 40% 1 20.09.2026 -
Esteban da Silva Racing Ativo 111 / 119 40% 1 20.09.2026 -
Luciano Cosentino Wanderers Ativo 128 / 119 40% 1 19.09.2026 -
Agustín Módica Gimnasia y Esgrima Ativo 117 / 120 40% 1 19.09.2026 -
Agustín Venezia Iquique Ativo 103 / 113 40% 1 19.09.2026 -
Nicolás Campisi Sportivo Luqueno Ativo 111 / 109 40% 3 16.09.2026 -
Tomás Giménez Gimnasia y Esgrima Ativo 99 / 103 40% 2 16.09.2026 -
Michael Vadulli Audax Italiano Ativo 110 / 116 40% 1 16.09.2026 -
Mateo Raschia Unión de Santa Fe Ativo 91 / 89 40% 3 15.09.2026 -
Cristopher Varela Deportivo La Guaira Ativo 110 / 116 40% 2 15.09.2026 -
Fernando Hernández St. Louis CITY SC Ativo 94 / 97 40% 1 15.09.2026 -
Patricio Albornoz Atlético Tucumán Ativo 87 / 103 40% 2 13.09.2026 -
Francisco Castillo Llaneros Ativo 105 / 86 40% 3 13.09.2026 -
Juan Pablo Cisternas Antofagasta Ativo 89 / 90 40% 3 12.09.2026 -
Cristhian Riveros Dinamo Batumi Ativo 82 / 90 40% 2 12.09.2026 -
Lucio Latorre Racing Club Ativo 87 / 88 40% 1 10.09.2026 -
Pep Biel Charlotte Football Club Ativo 138 / 138 40% 1 09.09.2026 -
Adolfo Muñoz Ruch Ativo 125 / 103 40% 1 09.09.2026 -
Lucas Beltrán Alanyaspor Ativo 91 / 88 40% 1 09.09.2026 -
Marco Espíndola Obolon Ativo 85 / 91 40% 1 08.09.2026 -
Jorge Hernández Tijuana Ativo 121 / 124 40% 5 05.09.2026 -
Martin Jedlička Banik Ostrava Ativo 138 / 116 40% 1 04.09.2026 -
Marcos Aguirre Korona Ativo 82 / 99 40% 1 04.09.2026 -
Junior Dávila Deportivo Municipal Ativo 100 / 95 40% 1 03.09.2026 -
Jonathan Lima Debrecen Ativo 103 / 82 40% 1 02.09.2026 -
Franco Carretero Deportivo Lara Ativo 93 / 100 40% 1 01.09.2026 -
Ignacio Colombo Sandefjord Ativo 81 / 85 40% 1 30.08.2026 -
Manuel Rios La Equidad Ativo 103 / 110 40% 1 29.08.2026 -
Julian Zapata Cortulua Ativo 115 / 111 40% 1 29.08.2026 -
José Sanhueza Universidad de Concepcion Ativo 85 / 79 40% 1 28.08.2026 -
Johan Portilla Deportivo Tachira Ativo 102 / 87 40% 1 28.08.2026 -
Juan Pablo Vásquez Novi Pazar Ativo 97 / 108 40% 1 28.08.2026 -
Andrés Fernández Aris Ativo 84 / 95 40% 1 27.08.2026 -
Alejo Sánchez Roa Aalesund Ativo 92 / 83 40% 1 26.08.2026 -
José Castro Tijuana Ativo 89 / 73 40% 1 23.08.2026 -
Giacomo Gambetta Ayacucho Ativo 102 / 82 40% 1 21.08.2026 -
Toni Fuidias Girona Ativo 116 / 87 40% 1 21.08.2026 -
Sebastián Mella Huachipato Ativo 86 / 102 40% 1 17.08.2026 -
Fabricio Díaz San Lorenzo Ativo 91 / 90 40% 1 12.08.2026 -
Alejandro Rodríguez Deportivo Cali Ativo 129 / 133 40% 1 11.08.2026 -
Stefano Condino All Boys Ativo 79 / 74 40% 1 10.08.2026 -
Hugo Gaona Sportivo Luqueno Ativo 81 / 94 40% 1 10.08.2026 -
Gustavo Dionisi Guarani Ativo 90 / 84 40% 1 07.08.2026 -
Miguel Sansores Ararat-Armenia Ativo 88 / 95 40% 1 05.08.2026 -
Italo Regalado Cesar Vallejo Ativo 113 / 120 40% 1 05.08.2026 -
Santiago Garro Almirante Brown Ativo 91 / 94 40% 1 03.08.2026 -
Juan Romero Olimpia Ativo 105 / 100 40% 1 03.08.2026 -
Genaro Rossi San Martín SJ Ativo 111 / 119 40% 1 03.08.2026 -